Time;durP1;ratioP1;P1;durP2;ratioP2;P2;SDS_P1;SDS_P2;PMS_P1;PMS_P2;Temp;Humidity;BMP_temperature;BMP_pressure;BME280_temperature;BME280_humidity;BME280_pressure;Samples;Min_cycle;Max_cycle;Signal;HPM_P1;HPM_P2
2021/12/23 00:02:17;;;;;;;10.30;2.33;;;25.90;60.00;;;;;;5040718;28;20053;-75
2021/12/23 00:04:45;;;;;;;4.93;1.98;;;25.90;60.00;;;;;;5040053;28;20030;-76
2021/12/23 00:07:19;;;;;;;11.63;2.22;;;25.90;60.20;;;;;;5034187;28;20481;-76
2021/12/23 00:12:16;;;;;;;4.80;1.70;;;25.80;60.20;;;;;;5033003;28;20455;-77
2021/12/23 00:14:45;;;;;;;4.78;2.30;;;25.80;60.30;;;;;;5034030;28;20029;-77
2021/12/23 00:17:25;;;;;;;4.63;1.58;;;25.80;60.40;;;;;;5033737;28;20041;-77
2021/12/23 00:25:18;;;;;;;;;;;25.70;60.40;;;;;;5040318;28;20546;-76
2021/12/23 00:27:44;;;;;;;5.95;1.60;;;25.80;60.60;;;;;;5033162;28;19909;-77
2021/12/23 00:30:11;;;;;;;8.20;2.17;;;25.80;60.60;;;;;;5035782;28;20373;-77
2021/12/23 00:32:38;;;;;;;5.50;1.92;;;25.70;60.50;;;;;;5034650;28;20021;-75
2021/12/23 00:35:09;;;;;;;6.03;2.17;;;25.70;60.50;;;;;;5035787;28;20033;-75
2021/12/23 00:37:40;;;;;;;9.25;2.15;;;25.70;60.60;;;;;;5032684;28;20037;-76
2021/12/23 00:40:09;;;;;;;5.70;1.67;;;25.70;60.60;;;;;;5036597;28;20500;-77
2021/12/23 00:42:36;;;;;;;9.40;1.95;;;25.70;60.60;;;;;;5036958;28;20025;-76
2021/12/23 00:45:04;;;;;;;8.82;2.17;;;25.60;60.70;;;;;;5034259;28;20033;-77
2021/12/23 00:47:31;;;;;;;9.60;2.90;;;25.60;60.80;;;;;;5034365;28;20024;-76
2021/12/23 00:49:58;;;;;;;21.50;3.20;;;25.70;60.90;;;;;;5036063;28;20029;-77
2021/12/23 00:52:32;;;;;;;27.25;2.90;;;25.60;61.10;;;;;;5034480;28;20013;-77
2021/12/23 00:54:58;;;;;;;22.30;2.97;;;25.60;61.10;;;;;;5031205;28;20075;-78
2021/12/23 00:57:29;;;;;;;22.48;2.63;;;25.60;61.40;;;;;;5032370;28;20034;-76
2021/12/23 00:59:57;;;;;;;17.42;2.42;;;25.60;61.50;;;;;;5031963;28;20013;-77
2021/12/23 01:02:29;;;;;;;12.68;1.90;;;25.60;61.40;;;;;;5032653;28;20033;-75
2021/12/23 01:04:56;;;;;;;3.80;1.92;;;25.60;61.30;;;;;;5032844;28;20079;-75
2021/12/23 01:07:23;;;;;;;5.15;1.85;;;25.60;61.20;;;;;;5031740;28;20030;-76
2021/12/23 01:09:49;;;;;;;5.97;1.92;;;25.50;61.10;;;;;;5035027;28;20063;-77
2021/12/23 01:12:20;;;;;;;4.78;2.08;;;25.50;61.10;;;;;;5036509;28;21026;-77
2021/12/23 01:14:56;;;;;;;5.72;2.10;;;25.50;61.00;;;;;;5036882;28;20105;-77
2021/12/23 01:17:32;;;;;;;7.70;2.40;;;25.50;61.00;;;;;;5033505;28;20041;-75
2021/12/23 01:20:01;;;;;;;6.85;1.52;;;25.50;61.00;;;;;;5039672;28;20030;-77
2021/12/23 01:22:28;;;;;;;7.47;2.05;;;25.50;60.90;;;;;;5033256;28;20022;-77
2021/12/23 01:24:54;;;;;;;3.97;1.92;;;25.50;61.00;;;;;;5037157;28;20108;-76
2021/12/23 01:27:21;;;;;;;6.38;2.10;;;25.50;60.90;;;;;;5039306;28;20194;-75
2021/12/23 01:29:47;;;;;;;5.75;1.80;;;25.50;60.90;;;;;;5030368;28;20036;-76
2021/12/23 01:32:14;;;;;;;4.55;1.65;;;25.40;60.80;;;;;;5032419;28;20411;-76
2021/12/23 01:34:40;;;;;;;6.03;3.35;;;25.40;60.90;;;;;;5031965;28;20029;-76
2021/12/23 01:37:07;;;;;;;5.00;1.67;;;25.40;60.90;;;;;;5030561;28;20033;-76
2021/12/23 01:39:33;;;;;;;8.32;1.83;;;25.40;60.90;;;;;;5033189;28;20048;-76
2021/12/23 01:42:00;;;;;;;5.45;1.58;;;25.40;60.90;;;;;;5031081;28;20022;-75
2021/12/23 01:44:27;;;;;;;4.22;1.80;;;25.40;60.90;;;;;;5033021;28;20480;-76
2021/12/23 01:46:54;;;;;;;5.95;1.95;;;25.40;60.90;;;;;;5032108;28;20400;-75
2021/12/23 01:49:20;;;;;;;3.55;1.17;;;25.40;61.00;;;;;;5031029;28;20025;-76
2021/12/23 01:51:47;;;;;;;5.72;1.80;;;25.40;60.90;;;;;;5031036;28;20045;-76
2021/12/23 01:54:13;;;;;;;10.60;2.90;;;25.30;60.90;;;;;;5033404;28;20026;-76
2021/12/23 01:56:40;;;;;;;11.02;2.20;;;25.30;60.90;;;;;;5032552;28;20380;-76
2021/12/23 01:59:06;;;;;;;15.27;2.35;;;25.30;61.00;;;;;;5030391;28;20061;-76
2021/12/23 02:01:33;;;;;;;11.02;2.20;;;25.30;61.20;;;;;;5034395;28;20051;-76
2021/12/23 02:03:59;;;;;;;15.52;3.03;;;25.30;61.20;;;;;;5030224;28;20044;-76
2021/12/23 02:06:26;;;;;;;25.98;3.25;;;25.30;61.30;;;;;;5035568;28;20018;-76
2021/12/23 02:08:52;;;;;;;22.35;4.55;;;25.20;61.30;;;;;;5032325;28;20293;-77
2021/12/23 02:11:19;;;;;;;19.55;2.72;;;25.20;61.40;;;;;;5030450;28;20061;-77
2021/12/23 02:13:46;;;;;;;12.35;3.25;;;25.20;61.40;;;;;;5033263;28;20079;-76
2021/12/23 02:16:12;;;;;;;12.38;2.10;;;25.20;61.30;;;;;;5033882;28;20417;-77
2021/12/23 02:18:39;;;;;;;13.02;3.00;;;25.10;61.30;;;;;;5036043;28;20028;-77
2021/12/23 02:21:07;;;;;;;8.05;2.33;;;25.10;61.30;;;;;;5033173;28;20115;-77
2021/12/23 02:23:34;;;;;;;24.73;7.00;;;25.10;62.00;;;;;;5034228;28;20067;-75
2021/12/23 02:26:00;;;;;;;41.22;18.38;;;25.10;61.40;;;;;;5036192;28;20018;-77
2021/12/23 02:28:27;;;;;;;32.88;15.15;;;25.00;61.60;;;;;;5035399;28;20491;-76
2021/12/23 02:30:54;;;;;;;27.67;8.75;;;25.00;61.70;;;;;;5036972;28;20068;-76
2021/12/23 02:33:23;;;;;;;25.40;7.85;;;25.00;61.80;;;;;;5038630;28;20032;-76
2021/12/23 02:35:53;;;;;;;26.77;5.05;;;25.00;61.80;;;;;;5030148;28;20041;-77
2021/12/23 02:38:20;;;;;;;21.50;4.00;;;25.00;61.80;;;;;;5034036;28;20546;-75
2021/12/23 02:40:47;;;;;;;13.27;2.75;;;25.00;61.80;;;;;;5033696;28;20193;-75
2021/12/23 02:43:26;;;;;;;17.85;3.53;;;24.90;61.90;;;;;;5038400;28;20024;-76
2021/12/23 02:45:55;;;;;;;21.05;3.17;;;25.00;62.00;;;;;;5032097;28;20044;-77
2021/12/23 02:48:34;;;;;;;13.93;2.35;;;24.90;62.00;;;;;;5034041;28;20071;-77
2021/12/23 02:51:04;;;;;;;6.05;2.67;;;24.90;62.00;;;;;;5031922;28;20050;-76
2021/12/23 02:53:31;;;;;;;7.80;1.80;;;24.90;62.00;;;;;;5035168;28;20026;-75
2021/12/23 02:55:59;;;;;;;7.55;1.92;;;24.90;62.10;;;;;;5036179;28;20045;-77
2021/12/23 02:58:26;;;;;;;6.63;2.15;;;24.90;62.10;;;;;;5041546;28;20396;-76
2021/12/23 03:00:54;;;;;;;8.80;2.65;;;24.80;62.20;;;;;;5035132;28;20461;-75
2021/12/23 03:03:21;;;;;;;9.13;3.03;;;24.80;62.20;;;;;;5035721;28;20040;-76
2021/12/23 03:05:53;;;;;;;7.28;1.92;;;24.80;62.30;;;;;;5041442;28;20041;-76
2021/12/23 03:08:32;;;;;;;9.77;2.15;;;24.80;62.30;;;;;;5037139;28;20017;-75
2021/12/23 03:10:59;;;;;;;6.50;1.75;;;24.80;62.30;;;;;;5037762;28;20036;-76
2021/12/23 03:13:26;;;;;;;6.22;1.60;;;24.70;62.30;;;;;;5034478;28;20155;-76
2021/12/23 03:15:53;;;;;;;10.95;2.42;;;24.70;62.40;;;;;;5040106;28;20547;-76
2021/12/23 03:18:20;;;;;;;6.07;2.33;;;24.80;62.50;;;;;;5035185;28;20018;-76
2021/12/23 03:20:47;;;;;;;10.73;2.75;;;24.80;62.60;;;;;;5033390;28;20047;-75
2021/12/23 03:23:13;;;;;;;12.05;3.28;;;24.80;62.60;;;;;;5042946;28;20475;-75
2021/12/23 03:25:39;;;;;;;31.83;4.45;;;24.70;62.60;;;;;;5040571;28;20108;-75
2021/12/23 03:28:06;;;;;;;23.80;6.50;;;24.80;63.20;;;;;;5029047;28;20021;-76
2021/12/23 03:30:33;;;;;;;22.73;12.85;;;24.70;63.40;;;;;;5034584;28;20148;-76
2021/12/23 03:32:59;;;;;;;17.45;12.65;;;24.70;63.50;;;;;;5040609;28;20017;-76
2021/12/23 03:35:26;;;;;;;18.60;8.05;;;24.70;63.50;;;;;;5034279;28;20021;-77
2021/12/23 03:37:53;;;;;;;18.52;6.38;;;24.70;63.30;;;;;;5033503;28;20057;-77
2021/12/23 03:40:21;;;;;;;12.20;3.72;;;24.70;63.20;;;;;;5032774;28;20032;-75
2021/12/23 03:42:51;;;;;;;12.52;3.40;;;24.70;63.10;;;;;;5035163;28;20481;-76
2021/12/23 03:45:18;;;;;;;17.13;5.00;;;24.70;63.00;;;;;;5033678;28;20032;-76
2021/12/23 03:47:48;;;;;;;39.55;12.35;;;24.70;63.00;;;;;;5034929;28;20036;-76
2021/12/23 03:50:17;;;;;;;37.95;15.90;;;24.70;63.10;;;;;;5032356;28;20398;-76
2021/12/23 03:52:45;;;;;;;20.77;10.65;;;24.70;63.20;;;;;;5035311;28;20049;-76
2021/12/23 03:55:13;;;;;;;21.65;6.25;;;24.70;63.20;;;;;;5033068;28;20042;-76
2021/12/23 03:57:40;;;;;;;12.80;4.07;;;24.70;63.10;;;;;;5033493;28;20595;-76
2021/12/23 04:00:10;;;;;;;11.45;2.78;;;24.70;63.10;;;;;;5032851;28;20108;-76
2021/12/23 04:02:36;;;;;;;8.65;2.67;;;24.70;63.20;;;;;;5034208;28;20074;-76
2021/12/23 04:05:06;;;;;;;6.43;2.10;;;24.70;63.20;;;;;;5036598;28;20017;-76
2021/12/23 04:07:34;;;;;;;5.55;2.10;;;24.70;63.10;;;;;;5030256;28;20037;-76
2021/12/23 04:10:03;;;;;;;12.15;3.67;;;24.70;63.20;;;;;;5031073;28;20026;-75
2021/12/23 04:12:29;;;;;;;11.80;2.40;;;24.70;63.10;;;;;;5030425;28;20021;-74
2021/12/23 04:14:56;;;;;;;3.13;1.25;;;24.70;63.20;;;;;;5032319;28;20028;-79
2021/12/23 04:17:22;;;;;;;10.77;3.10;;;24.80;63.40;;;;;;5030231;28;20029;-76
2021/12/23 04:19:50;;;;;;;24.85;3.38;;;24.80;63.50;;;;;;5031863;28;20026;-76
2021/12/23 04:22:17;;;;;;;34.55;5.32;;;24.60;63.60;;;;;;5029312;28;20487;-74
2021/12/23 04:24:44;;;;;;;33.40;6.70;;;24.40;64.10;;;;;;5032000;28;20032;-74
2021/12/23 04:27:10;;;;;;;18.73;10.00;;;24.30;64.90;;;;;;5023022;28;20096;-76
2021/12/23 04:29:38;;;;;;;13.93;4.90;;;24.20;65.10;;;;;;5030479;28;20071;-76
2021/12/23 04:32:05;;;;;;;5.82;2.25;;;24.10;65.30;;;;;;5035036;28;20472;-78
2021/12/23 04:34:32;;;;;;;8.40;1.60;;;24.00;65.60;;;;;;5031557;28;20014;-77
2021/12/23 04:36:58;;;;;;;12.85;2.15;;;24.00;66.00;;;;;;5033245;28;20653;-76
2021/12/23 04:39:25;;;;;;;6.45;1.92;;;24.00;66.10;;;;;;5035623;28;20032;-77
2021/12/23 04:41:51;;;;;;;8.45;2.20;;;24.00;66.10;;;;;;5032128;28;20542;-76
2021/12/23 04:44:18;;;;;;;6.93;1.77;;;24.00;66.20;;;;;;5031696;28;20028;-77
2021/12/23 04:46:44;;;;;;;4.53;1.60;;;23.90;66.20;;;;;;5033327;28;20068;-75
2021/12/23 04:49:11;;;;;;;9.73;1.80;;;23.90;66.30;;;;;;5033605;28;20100;-76
2021/12/23 04:51:37;;;;;;;13.38;2.47;;;23.90;66.30;;;;;;5030268;28;20036;-75
2021/12/23 04:54:04;;;;;;;12.38;3.08;;;23.90;66.50;;;;;;5035005;28;20570;-76
2021/12/23 04:56:30;;;;;;;18.08;3.15;;;23.90;66.30;;;;;;5030260;28;20072;-75
2021/12/23 04:58:56;;;;;;;26.13;3.58;;;24.10;66.00;;;;;;5032493;28;20109;-75
2021/12/23 05:01:31;;;;;;;21.35;3.08;;;24.20;65.70;;;;;;5029085;28;20029;-76
2021/12/23 05:03:58;;;;;;;30.13;4.28;;;24.30;65.40;;;;;;5031912;28;20045;-75
2021/12/23 05:06:24;;;;;;;28.23;4.70;;;24.40;65.10;;;;;;5029382;28;20021;-75
2021/12/23 05:08:51;;;;;;;34.20;4.88;;;24.40;64.90;;;;;;5032624;28;20029;-75
2021/12/23 05:11:17;;;;;;;17.17;2.67;;;24.50;64.70;;;;;;5030326;28;20033;-75
2021/12/23 05:13:47;;;;;;;17.23;3.25;;;24.60;64.60;;;;;;5033692;28;20021;-75
2021/12/23 05:16:18;;;;;;;13.23;2.28;;;24.60;64.50;;;;;;5032472;28;20064;-76
2021/12/23 05:18:45;;;;;;;17.90;4.35;;;24.70;64.40;;;;;;5031724;28;20090;-76
2021/12/23 05:21:12;;;;;;;18.00;3.63;;;24.70;64.30;;;;;;5029899;28;20029;-75
2021/12/23 05:23:39;;;;;;;13.77;3.28;;;24.80;64.20;;;;;;5030816;28;20017;-75
2021/12/23 05:26:07;;;;;;;33.33;7.43;;;24.80;64.10;;;;;;5030633;28;20680;-76
2021/12/23 05:28:35;;;;;;;45.95;10.55;;;24.90;64.20;;;;;;5030555;28;20030;-76
2021/12/23 05:31:03;;;;;;;73.35;12.85;;;24.90;64.20;;;;;;5028277;28;20025;-77
2021/12/23 05:33:29;;;;;;;40.38;10.63;;;25.00;64.30;;;;;;5030276;28;20024;-76
2021/12/23 05:35:57;;;;;;;29.00;5.32;;;25.00;64.40;;;;;;5025955;28;20029;-75
2021/12/23 05:38:24;;;;;;;24.73;4.15;;;25.10;64.40;;;;;;5027594;28;20021;-75
2021/12/23 05:40:51;;;;;;;15.70;3.40;;;25.10;64.20;;;;;;5027904;28;20044;-76
2021/12/23 05:43:18;;;;;;;11.35;2.85;;;25.20;64.10;;;;;;5021374;28;20116;-77
2021/12/23 05:45:44;;;;;;;12.57;2.90;;;25.20;63.90;;;;;;5029426;28;20021;-76
2021/12/23 05:48:11;;;;;;;11.10;3.50;;;25.20;63.80;;;;;;5031374;28;20028;-77
2021/12/23 05:50:37;;;;;;;7.80;1.48;;;25.20;63.60;;;;;;5038747;28;20021;-75
2021/12/23 05:53:04;;;;;;;5.63;1.77;;;25.20;63.60;;;;;;5029351;28;20426;-73
2021/12/23 05:55:33;;;;;;;7.65;2.08;;;25.20;63.50;;;;;;5031696;28;20053;-75
2021/12/23 05:58:02;;;;;;;7.47;2.65;;;25.30;63.50;;;;;;5030167;28;20049;-76
2021/12/23 06:00:32;;;;;;;8.82;2.17;;;25.30;63.40;;;;;;5031922;28;20150;-75
2021/12/23 06:03:01;;;;;;;9.65;3.00;;;25.30;63.40;;;;;;5034052;28;20522;-75
2021/12/23 06:05:29;;;;;;;21.00;3.15;;;25.30;63.40;;;;;;5034971;28;20029;-75
2021/12/23 06:07:55;;;;;;;13.68;4.32;;;25.30;63.60;;;;;;5030569;28;20026;-76
2021/12/23 06:10:49;;;;;;;5.30;2.08;;;25.30;63.10;;;;;;5109735;27;20475;-76
2021/12/23 06:13:16;;;;;;;6.70;2.35;;;25.30;63.60;;;;;;5102951;28;20036;-76
2021/12/23 06:15:42;;;;;;;8.25;2.63;;;25.30;63.70;;;;;;5102396;28;20432;-77
2021/12/23 06:18:09;;;;;;;8.20;3.30;;;25.10;63.80;;;;;;5097476;28;20039;-79
2021/12/23 06:20:36;;;;;;;8.52;3.13;;;25.00;64.10;;;;;;5095053;28;20012;-77
2021/12/23 06:24:46;;;;;;;9.43;1.90;;;25.00;63.90;;;;;;5139056;27;20119;-77
2021/12/23 06:27:14;;;;;;;10.85;2.30;;;24.90;64.50;;;;;;5121864;27;20130;-74
2021/12/23 06:29:41;;;;;;;34.53;4.05;;;24.80;64.70;;;;;;5114460;27;20097;-74
2021/12/23 06:32:07;;;;;;;37.53;6.78;;;24.80;65.00;;;;;;5124645;27;20115;-74
2021/12/23 06:34:36;;;;;;;32.92;6.93;;;24.80;65.00;;;;;;5120388;27;20641;-75
2021/12/23 06:37:04;;;;;;;35.88;7.95;;;24.90;65.00;;;;;;5125827;27;20028;-78
2021/12/23 06:39:34;;;;;;;29.48;5.13;;;25.00;64.90;;;;;;5119392;27;20381;-79
2021/12/23 06:42:00;;;;;;;29.50;4.78;;;25.00;64.80;;;;;;5125858;27;20035;-78
2021/12/23 06:44:27;;;;;;;16.98;4.68;;;25.10;64.80;;;;;;5124460;27;20431;-77
2021/12/23 06:46:54;;;;;;;22.27;3.28;;;25.10;64.60;;;;;;5123164;27;20012;-78
2021/12/23 06:49:20;;;;;;;34.60;4.70;;;25.20;64.40;;;;;;5125448;27;20020;-77
2021/12/23 06:51:47;;;;;;;37.40;6.22;;;25.20;64.30;;;;;;5124083;27;20031;-78
2021/12/23 06:54:17;;;;;;;29.10;4.35;;;25.30;64.40;;;;;;5127261;27;20023;-78
2021/12/23 06:56:46;;;;;;;20.55;3.67;;;25.30;64.50;;;;;;5120773;27;20019;-77
2021/12/23 06:59:16;;;;;;;18.00;3.72;;;25.30;64.40;;;;;;5121765;27;20031;-78
2021/12/23 07:01:47;;;;;;;8.52;2.90;;;25.40;64.40;;;;;;5121893;27;20020;-78
2021/12/23 07:04:16;;;;;;;7.75;2.35;;;25.40;64.20;;;;;;5120582;27;20028;-78
2021/12/23 07:06:52;;;;;;;11.07;2.13;;;25.40;64.20;;;;;;5122941;27;20023;-78
2021/12/23 07:09:19;;;;;;;9.10;2.10;;;25.40;64.10;;;;;;5120557;27;20064;-78
2021/12/23 07:11:45;;;;;;;7.45;1.67;;;25.40;63.90;;;;;;5123182;27;20419;-78
2021/12/23 07:14:12;;;;;;;5.03;1.60;;;25.50;63.80;;;;;;5123719;27;20547;-77
2021/12/23 07:16:40;;;;;;;7.95;1.95;;;25.50;63.80;;;;;;5119923;27;20072;-78
2021/12/23 07:19:07;;;;;;;6.72;1.77;;;25.50;63.80;;;;;;5102048;28;20770;-78
2021/12/23 07:21:33;;;;;;;5.50;1.83;;;25.50;63.60;;;;;;5125583;27;20042;-77
2021/12/23 07:24:00;;;;;;;13.32;2.28;;;25.60;63.60;;;;;;5122276;27;20050;-77
2021/12/23 07:26:27;;;;;;;5.13;2.22;;;25.60;63.60;;;;;;5124592;27;20027;-77
2021/12/23 07:28:53;;;;;;;11.43;2.60;;;25.60;63.60;;;;;;5126535;27;20023;-76
2021/12/23 07:31:20;;;;;;;20.95;3.17;;;25.70;63.40;;;;;;5124953;27;20024;-76
2021/12/23 07:33:46;;;;;;;19.70;4.28;;;25.70;63.30;;;;;;5120096;27;20031;-76
2021/12/23 07:36:18;;;;;;;14.18;3.08;;;25.80;63.20;;;;;;5109319;27;20470;-77
2021/12/23 07:38:45;;;;;;;10.93;1.98;;;25.80;63.00;;;;;;5105386;27;20110;-77
2021/12/23 07:41:12;;;;;;;14.15;4.55;;;25.90;63.00;;;;;;5112135;27;20015;-76
2021/12/23 07:46:06;;;;;;;27.30;3.80;;;26.00;62.60;;;;;;5106543;27;20486;-76
2021/12/23 07:48:32;;;;;;;16.35;3.38;;;26.10;62.50;;;;;;5103636;27;20545;-77
2021/12/23 07:51:01;;;;;;;27.92;5.00;;;26.10;62.40;;;;;;5112060;28;20019;-76
2021/12/23 07:53:28;;;;;;;27.98;6.50;;;26.20;62.40;;;;;;5102526;27;20020;-77
2021/12/23 07:55:54;;;;;;;19.30;2.88;;;26.20;62.00;;;;;;5111224;28;20019;-77
2021/12/23 07:58:21;;;;;;;16.83;2.88;;;26.30;61.80;;;;;;5108228;27;20024;-77
2021/12/23 08:00:47;;;;;;;29.50;3.35;;;26.30;61.40;;;;;;5085540;28;20505;-77
2021/12/23 08:03:14;;;;;;;11.35;2.10;;;26.40;61.30;;;;;;5107357;27;20486;-76
2021/12/23 08:05:41;;;;;;;14.40;2.33;;;26.40;61.20;;;;;;5105785;27;20020;-77
2021/12/23 08:08:08;;;;;;;9.65;1.65;;;26.40;60.80;;;;;;5105716;27;20024;-77
2021/12/23 08:10:35;;;;;;;10.63;2.92;;;26.50;60.60;;;;;;5111952;27;20035;-77
2021/12/23 08:13:02;;;;;;;8.45;1.67;;;26.60;60.30;;;;;;5111402;27;20112;-77
2021/12/23 08:15:28;;;;;;;5.57;2.03;;;26.60;60.00;;;;;;5106121;27;20489;-77
2021/12/23 08:17:55;;;;;;;7.75;2.25;;;26.70;60.00;;;;;;5104658;27;20095;-76
2021/12/23 08:20:21;;;;;;;25.27;3.38;;;26.70;59.70;;;;;;5111862;27;20027;-77
2021/12/23 08:22:48;;;;;;;45.60;5.97;;;26.80;59.70;;;;;;5108859;27;20078;-76
2021/12/23 08:25:15;;;;;;;39.45;4.38;;;26.80;59.70;;;;;;5102084;27;20020;-77
2021/12/23 08:27:43;;;;;;;46.72;8.40;;;26.80;59.60;;;;;;5110226;27;20016;-77
2021/12/23 08:30:12;;;;;;;27.95;4.07;;;26.90;59.30;;;;;;5107433;27;20766;-76
2021/12/23 08:32:39;;;;;;;22.45;4.22;;;26.90;59.30;;;;;;5107206;27;20032;-76
2021/12/23 08:35:07;;;;;;;18.38;3.13;;;26.90;59.30;;;;;;5103564;27;20013;-77
2021/12/23 08:37:34;;;;;;;15.55;3.15;;;26.90;59.50;;;;;;5109605;27;20027;-76
2021/12/23 08:40:00;;;;;;;22.73;2.28;;;26.90;59.50;;;;;;5110790;27;20012;-77
2021/12/23 08:42:26;;;;;;;11.57;2.95;;;26.90;59.70;;;;;;5107021;27;20059;-76
2021/12/23 08:44:53;;;;;;;8.50;2.95;;;26.90;59.70;;;;;;5106988;28;20438;-77
2021/12/23 08:47:19;;;;;;;7.20;1.98;;;26.80;60.10;;;;;;5103986;28;20047;-75
2021/12/23 08:49:46;;;;;;;5.43;1.45;;;26.80;60.10;;;;;;5110536;27;20016;-76
2021/12/23 08:52:13;;;;;;;5.80;2.65;;;26.80;60.10;;;;;;5101642;27;20024;-76
2021/12/23 08:54:42;;;;;;;53.53;5.60;;;26.80;60.10;;;;;;5109572;27;20030;-76
2021/12/23 08:57:10;;;;;;;27.75;4.78;;;26.80;60.20;;;;;;5109724;27;20026;-76
2021/12/23 08:59:36;;;;;;;30.17;5.03;;;26.90;60.20;;;;;;5109891;27;20129;-77
2021/12/23 09:02:03;;;;;;;16.70;2.80;;;26.90;59.90;;;;;;5109240;28;20031;-76
2021/12/23 09:04:29;;;;;;;9.57;2.35;;;27.00;59.80;;;;;;5108547;27;20036;-76
2021/12/23 09:06:56;;;;;;;7.63;1.90;;;27.10;59.80;;;;;;5106604;27;20023;-76
2021/12/23 09:09:24;;;;;;;5.20;2.20;;;27.10;59.60;;;;;;5107242;27;20024;-77
2021/12/23 09:11:52;;;;;;;5.85;2.25;;;27.20;59.50;;;;;;5110524;27;20016;-77
2021/12/23 09:14:18;;;;;;;9.38;1.30;;;27.20;59.20;;;;;;5103886;27;20021;-77
2021/12/23 09:16:45;;;;;;;3.85;1.23;;;27.30;59.10;;;;;;5103796;27;20318;-76
2021/12/23 09:19:11;;;;;;;9.77;1.85;;;27.30;58.80;;;;;;5107040;27;20024;-78
2021/12/23 09:21:38;;;;;;;14.40;2.15;;;27.40;59.00;;;;;;5111259;27;20051;-77
2021/12/23 09:24:05;;;;;;;9.43;1.70;;;27.40;58.70;;;;;;5109894;27;20049;-77
2021/12/23 09:26:35;;;;;;;13.13;2.25;;;27.50;58.40;;;;;;5104808;28;20016;-77
2021/12/23 09:34:14;;;;;;;5.10;1.77;;;27.60;57.90;;;;;;5109892;27;20115;-76
2021/12/23 09:36:40;;;;;;;6.25;1.73;;;27.60;57.60;;;;;;5108420;27;20080;-76
2021/12/23 09:39:09;;;;;;;5.20;1.30;;;27.70;57.40;;;;;;5110307;27;20107;-76
2021/12/23 09:41:39;;;;;;;7.07;2.25;;;27.70;57.40;;;;;;5106856;28;20030;-76
2021/12/23 09:44:08;;;;;;;4.90;2.13;;;27.70;57.60;;;;;;5100028;27;20031;-76
2021/12/23 09:46:36;;;;;;;7.03;2.30;;;27.80;57.40;;;;;;5110416;27;20545;-77
2021/12/23 09:49:04;;;;;;;6.63;2.80;;;27.80;57.10;;;;;;5108841;28;20068;-76
2021/12/23 09:51:33;;;;;;;9.13;2.25;;;27.90;57.20;;;;;;5107202;27;20012;-77
2021/12/23 09:54:02;;;;;;;43.80;5.43;;;27.90;56.80;;;;;;5092164;27;20020;-77
2021/12/23 09:56:31;;;;;;;21.52;3.83;;;28.00;57.00;;;;;;5106693;27;20115;-77
2021/12/23 09:58:59;;;;;;;13.80;3.63;;;28.10;56.80;;;;;;5109415;28;20016;-77
2021/12/23 10:01:31;;;;;;;11.25;4.30;;;28.20;56.50;;;;;;5104583;28;20011;-77
2021/12/23 10:03:57;;;;;;;12.02;5.50;;;28.10;56.00;;;;;;5109585;28;20046;-77
2021/12/23 10:06:25;;;;;;;29.02;6.65;;;28.10;55.90;;;;;;5101501;27;20039;-77
2021/12/23 10:08:53;;;;;;;23.20;4.68;;;28.10;55.70;;;;;;5099575;28;20042;-76
2021/12/23 10:11:47;;;;;;;16.52;3.75;;;28.10;55.90;;;;;;5099746;28;20024;-76
2021/12/23 10:31:47;;;;;;;9.90;2.80;;;28.00;55.60;;;;;;5100275;28;20539;-77
2021/12/23 10:37:21;;;;;;;19.27;3.53;;;28.10;55.50;;;;;;5064688;28;20032;-77
2021/12/23 10:40:05;;;;;;;10.73;2.70;;;28.10;55.60;;;;;;5097303;28;20016;-77
2021/12/23 10:42:32;;;;;;;13.05;2.50;;;28.10;55.10;;;;;;5098766;28;20365;-77
2021/12/23 10:45:05;;;;;;;14.55;2.83;;;28.20;55.20;;;;;;5094540;28;20417;-77
2021/12/23 10:47:37;;;;;;;14.00;2.78;;;28.20;55.10;;;;;;5100600;28;20012;-77
2021/12/23 10:50:40;;;;;;;34.95;4.38;;;28.30;55.30;;;;;;5097883;28;20105;-77
2021/12/23 10:53:24;;;;;;;32.50;4.57;;;28.30;55.10;;;;;;5093427;28;20069;-75
2021/12/23 10:59:06;;;;;;;17.27;3.08;;;28.40;55.00;;;;;;5101325;28;20593;-77
2021/12/23 11:01:37;;;;;;;13.18;2.40;;;28.50;54.80;;;;;;5101867;28;20028;-75
2021/12/23 11:04:06;;;;;;;7.15;2.42;;;28.50;54.70;;;;;;5102768;28;20031;-74
2021/12/23 11:06:42;;;;;;;6.28;1.52;;;28.60;54.40;;;;;;5102665;28;20513;-75
2021/12/23 11:12:16;;;;;;;13.82;5.43;;;28.60;54.60;;;;;;5100900;27;20062;-74
2021/12/23 11:29:06;;;;;;;6.70;2.40;;;28.80;53.50;;;;;;5079925;28;20036;-74
2021/12/23 11:37:12;;;;;;;;;;;28.60;53.50;;;;;;5083299;28;20031;-77
2021/12/23 11:40:51;;;;;;;8.68;5.03;;;28.60;53.70;;;;;;5084019;28;20247;-75
2021/12/23 11:43:02;;;;;;;14.63;4.38;;;28.60;53.80;;;;;;5062234;28;20437;-75
2021/12/23 11:45:24;;;;;;;12.27;3.92;;;28.70;53.60;;;;;;5083388;28;20148;-77
2021/12/23 11:47:52;;;;;;;9.50;3.58;;;28.70;53.40;;;;;;5088579;28;20106;-77
2021/12/23 11:50:29;;;;;;;11.35;3.97;;;28.70;53.30;;;;;;5083618;28;20139;-74
2021/12/23 11:52:56;;;;;;;10.23;3.60;;;28.70;53.20;;;;;;5086343;28;20036;-77
2021/12/23 11:55:22;;;;;;;11.20;4.38;;;28.70;53.10;;;;;;5087299;28;20029;-75
2021/12/23 11:57:51;;;;;;;10.45;3.90;;;28.70;53.20;;;;;;5086360;28;20560;-76
2021/12/23 12:00:32;;;;;;;4.45;2.20;;;28.60;53.00;;;;;;5088299;28;20028;-74
2021/12/23 12:03:00;;;;;;;7.68;2.47;;;28.60;53.30;;;;;;5085815;28;20036;-76
2021/12/23 12:05:27;;;;;;;57.33;15.32;;;28.60;53.30;;;;;;5087560;28;20522;-73
2021/12/23 12:08:10;;;;;;;22.33;9.02;;;28.50;53.20;;;;;;5086406;28;20072;-76
2021/12/23 12:10:40;;;;;;;18.25;6.68;;;28.50;53.30;;;;;;5086938;28;20023;-74
2021/12/23 12:13:12;;;;;;;17.35;5.88;;;28.50;53.40;;;;;;5085490;28;20089;-77
2021/12/23 12:15:39;;;;;;;19.88;4.30;;;28.60;53.30;;;;;;5083625;28;20020;-77
2021/12/23 12:18:08;;;;;;;71.00;9.38;;;28.60;53.30;;;;;;5086681;28;20378;-77
2021/12/23 12:20:43;;;;;;;29.02;6.30;;;28.60;53.20;;;;;;5083794;28;20051;-79
2021/12/23 12:23:14;;;;;;;25.15;4.10;;;28.70;53.60;;;;;;5085879;28;20135;-77
2021/12/23 12:25:41;;;;;;;26.35;4.82;;;28.80;53.50;;;;;;5084253;28;20389;-79
2021/12/23 12:28:07;;;;;;;20.08;4.15;;;28.80;53.30;;;;;;5087116;28;20138;-78
2021/12/23 12:30:42;;;;;;;17.10;3.05;;;28.90;53.20;;;;;;5086629;28;20043;-77
2021/12/23 12:33:24;;;;;;;11.68;2.50;;;29.00;53.00;;;;;;5084019;28;20020;-77
2021/12/23 12:36:04;;;;;;;19.60;3.33;;;29.00;52.70;;;;;;5086025;28;20069;-78
2021/12/23 12:38:34;;;;;;;4.93;2.00;;;29.00;52.70;;;;;;5084338;28;20034;-78
2021/12/23 12:41:19;;;;;;;13.52;2.42;;;29.10;52.50;;;;;;5083919;28;20482;-78
2021/12/23 12:43:54;;;;;;;7.93;2.28;;;29.10;52.40;;;;;;5085976;28;20486;-78
2021/12/23 12:46:45;;;;;;;6.82;2.30;;;29.20;52.40;;;;;;5083403;28;20024;-77
2021/12/23 12:49:29;;;;;;;44.15;7.78;;;29.20;52.10;;;;;;5084951;28;20528;-75
2021/12/23 12:52:08;;;;;;;26.67;3.95;;;29.20;52.20;;;;;;5083085;28;20033;-78
2021/12/23 12:54:46;;;;;;;7.53;2.90;;;29.30;52.10;;;;;;5082246;28;20034;-77
2021/12/23 12:57:13;;;;;;;14.00;3.75;;;29.30;52.10;;;;;;5085016;28;20017;-77
2021/12/23 12:59:46;;;;;;;10.48;3.67;;;29.30;52.10;;;;;;5083337;28;20032;-77
2021/12/23 13:02:38;;;;;;;12.18;2.30;;;29.40;52.10;;;;;;5085785;28;20028;-77
2021/12/23 13:05:09;;;;;;;15.68;3.80;;;29.40;51.90;;;;;;5079540;28;20040;-77
2021/12/23 13:07:38;;;;;;;7.07;2.38;;;29.40;52.00;;;;;;5084667;28;20024;-77
2021/12/23 13:10:18;;;;;;;12.50;2.60;;;29.50;51.90;;;;;;5084597;28;20063;-77
2021/12/23 13:12:56;;;;;;;12.13;2.50;;;29.50;51.90;;;;;;5075422;28;20031;-77
2021/12/23 13:15:33;;;;;;;6.18;2.50;;;29.50;51.60;;;;;;5076643;28;20050;-77
2021/12/23 13:18:04;;;;;;;6.28;2.95;;;29.50;51.50;;;;;;5077352;28;20493;-74
2021/12/23 13:20:41;;;;;;;6.18;2.40;;;29.60;52.20;;;;;;5079514;28;20069;-75
2021/12/23 13:23:12;;;;;;;9.15;3.63;;;29.60;51.50;;;;;;5078785;28;20135;-78
2021/12/23 13:26:00;;;;;;;16.42;3.70;;;29.60;51.40;;;;;;5078866;28;20374;-77
2021/12/23 13:28:35;;;;;;;11.95;3.05;;;29.60;51.40;;;;;;5078135;28;20067;-76
2021/12/23 13:31:07;;;;;;;12.23;4.70;;;29.70;51.50;;;;;;5076126;28;20084;-73
2021/12/23 13:33:43;;;;;;;11.88;3.10;;;29.70;51.50;;;;;;5081288;28;20028;-75
2021/12/23 13:36:31;;;;;;;4.65;3.28;;;29.70;51.30;;;;;;5076790;28;20024;-78
2021/12/23 13:39:03;;;;;;;12.80;3.05;;;29.70;51.70;;;;;;5077504;28;20016;-77
2021/12/23 13:41:36;;;;;;;15.20;3.72;;;29.70;50.70;;;;;;5077612;28;20024;-77
2021/12/23 13:44:22;;;;;;;20.40;3.60;;;29.70;50.60;;;;;;5076975;28;20040;-78
2021/12/23 13:47:07;;;;;;;12.55;3.08;;;29.70;50.30;;;;;;5077966;28;20078;-78
2021/12/23 13:49:53;;;;;;;8.25;2.63;;;29.60;50.30;;;;;;5078341;28;20043;-77
2021/12/23 13:52:26;;;;;;;16.65;3.33;;;29.70;50.50;;;;;;5075995;28;20106;-80
2021/12/23 13:55:02;;;;;;;18.92;4.45;;;29.60;50.50;;;;;;5076883;28;20037;-78
2021/12/23 13:57:33;;;;;;;15.43;3.17;;;29.60;50.40;;;;;;5077541;28;20013;-78